sensor_id;sensor_type;location;lat;lon;timestamp;pressure;altitude;pressure_sealevel;temperature;humidity
55418;BME280;41287;47.554;7.844;2023-02-28T00:01:24;98370.47;;;15.89;59.80
55418;BME280;41287;47.554;7.844;2023-02-28T00:03:49;98375.88;;;15.89;59.70
55418;BME280;41287;47.554;7.844;2023-02-28T00:06:15;98365.88;;;15.90;59.88
55418;BME280;41287;47.554;7.844;2023-02-28T00:08:41;98369.34;;;15.90;59.75
55418;BME280;41287;47.554;7.844;2023-02-28T00:11:09;98375.56;;;15.91;59.90
55418;BME280;41287;47.554;7.844;2023-02-28T00:13:36;98363.19;;;15.90;59.73
55418;BME280;41287;47.554;7.844;2023-02-28T00:16:05;98367.78;;;15.89;59.77
55418;BME280;41287;47.554;7.844;2023-02-28T00:18:33;98366.97;;;15.89;59.89
55418;BME280;41287;47.554;7.844;2023-02-28T00:20:58;98362.38;;;15.89;59.73
55418;BME280;41287;47.554;7.844;2023-02-28T00:23:25;98361.25;;;15.90;59.78
55418;BME280;41287;47.554;7.844;2023-02-28T00:25:53;98364.28;;;15.89;59.96
55418;BME280;41287;47.554;7.844;2023-02-28T00:28:21;98365.09;;;15.89;59.85
55418;BME280;41287;47.554;7.844;2023-02-28T00:30:46;98364.28;;;15.89;59.89
55418;BME280;41287;47.554;7.844;2023-02-28T00:33:12;98364.28;;;15.89;59.89
55418;BME280;41287;47.554;7.844;2023-02-28T00:35:38;98361.25;;;15.90;59.76
55418;BME280;41287;47.554;7.844;2023-02-28T00:38:03;98363.19;;;15.90;59.93
55418;BME280;41287;47.554;7.844;2023-02-28T00:40:29;98357.78;;;15.90;59.78
55418;BME280;41287;47.554;7.844;2023-02-28T00:42:55;98359.69;;;15.89;59.86
55418;BME280;41287;47.554;7.844;2023-02-28T00:45:22;98356.16;;;15.89;59.79
55418;BME280;41287;47.554;7.844;2023-02-28T00:47:47;98359.34;;;15.91;59.91
55418;BME280;41287;47.554;7.844;2023-02-28T00:50:17;98357.78;;;15.90;59.84
55418;BME280;41287;47.554;7.844;2023-02-28T00:52:44;98357.78;;;15.90;59.93
55418;BME280;41287;47.554;7.844;2023-02-28T00:55:10;98358.53;;;15.90;59.96
55418;BME280;41287;47.554;7.844;2023-02-28T00:57:35;98360.47;;;15.90;59.80
55418;BME280;41287;47.554;7.844;2023-02-28T01:00:01;98353.94;;;15.91;59.76
55418;BME280;41287;47.554;7.844;2023-02-28T01:02:29;98353.13;;;15.90;59.90
55418;BME280;41287;47.554;7.844;2023-02-28T01:04:54;98349.66;;;15.90;59.91
55418;BME280;41287;47.554;7.844;2023-02-28T01:07:22;98356.97;;;15.89;59.62
55418;BME280;41287;47.554;7.844;2023-02-28T01:09:49;98365.88;;;15.90;59.84
55418;BME280;41287;47.554;7.844;2023-02-28T01:12:15;98355.06;;;15.90;59.81
55418;BME280;41287;47.554;7.844;2023-02-28T01:14:40;98359.69;;;15.89;59.77
55418;BME280;41287;47.554;7.844;2023-02-28T01:17:06;98361.25;;;15.90;59.85
55418;BME280;41287;47.554;7.844;2023-02-28T01:19:33;98353.13;;;15.90;59.93
55418;BME280;41287;47.554;7.844;2023-02-28T01:22:03;98355.06;;;15.90;59.94
55418;BME280;41287;47.554;7.844;2023-02-28T01:24:29;98360.47;;;15.90;59.78
55418;BME280;41287;47.554;7.844;2023-02-28T01:26:56;98353.13;;;15.90;59.87
55418;BME280;41287;47.554;7.844;2023-02-28T01:29:21;98355.84;;;15.90;59.92
55418;BME280;41287;47.554;7.844;2023-02-28T01:31:47;98355.06;;;15.90;59.85
55418;BME280;41287;47.554;7.844;2023-02-28T01:34:12;98356.63;;;15.91;59.87
55418;BME280;41287;47.554;7.844;2023-02-28T01:36:38;98358.53;;;15.90;59.88
55418;BME280;41287;47.554;7.844;2023-02-28T01:39:03;98358.53;;;15.90;59.75
55418;BME280;41287;47.554;7.844;2023-02-28T01:41:31;98346.97;;;15.90;59.87
55418;BME280;41287;47.554;7.844;2023-02-28T01:43:59;98349.66;;;15.90;59.88
55418;BME280;41287;47.554;7.844;2023-02-28T01:46:28;98352.38;;;15.90;59.79
55418;BME280;41287;47.554;7.844;2023-02-28T01:49:00;98353.13;;;15.90;59.98
55418;BME280;41287;47.554;7.844;2023-02-28T01:51:33;98344.25;;;15.90;59.86
55418;BME280;41287;47.554;7.844;2023-02-28T01:54:03;98344.25;;;15.90;59.79
55418;BME280;41287;47.554;7.844;2023-02-28T01:56:33;98344.25;;;15.90;59.77
55418;BME280;41287;47.554;7.844;2023-02-28T01:59:01;98341.56;;;15.90;59.83
55418;BME280;41287;47.554;7.844;2023-02-28T02:01:29;98339.63;;;15.90;59.82
55418;BME280;41287;47.554;7.844;2023-02-28T02:03:59;98339.63;;;15.90;60.03
55418;BME280;41287;47.554;7.844;2023-02-28T02:06:34;98334.56;;;15.89;59.82
55418;BME280;41287;47.554;7.844;2023-02-28T02:09:01;98332.66;;;15.89;59.95
55418;BME280;41287;47.554;7.844;2023-02-28T02:11:26;98331.53;;;15.90;59.84
55418;BME280;41287;47.554;7.844;2023-02-28T02:15:05;98322.94;;;15.88;59.89
55418;BME280;41287;47.554;7.844;2023-02-28T02:31:42;98314.84;;;15.88;59.86
55418;BME280;41287;47.554;7.844;2023-02-28T02:36:52;98312.13;;;15.88;59.83
55418;BME280;41287;47.554;7.844;2023-02-28T02:39:32;98314.03;;;15.88;59.85
55418;BME280;41287;47.554;7.844;2023-02-28T02:42:06;98318.34;;;15.89;59.95
55418;BME280;41287;47.554;7.844;2023-02-28T02:44:52;98322.94;;;15.88;59.89
55418;BME280;41287;47.554;7.844;2023-02-28T02:47:20;98310.22;;;15.89;59.87
55418;BME280;41287;47.554;7.844;2023-02-28T02:49:54;98322.16;;;15.88;60.00
55418;BME280;41287;47.554;7.844;2023-02-28T02:52:24;98318.34;;;15.89;59.86
55418;BME280;41287;47.554;7.844;2023-02-28T02:54:54;98312.94;;;15.89;59.96
55418;BME280;41287;47.554;7.844;2023-02-28T02:57:28;98312.13;;;15.88;59.88
55418;BME280;41287;47.554;7.844;2023-02-28T02:59:56;98313.75;;;15.89;60.04
55418;BME280;41287;47.554;7.844;2023-02-28T03:02:23;98306.44;;;15.90;59.86
55418;BME280;41287;47.554;7.844;2023-02-28T03:04:52;98315.63;;;15.89;59.93
55418;BME280;41287;47.554;7.844;2023-02-28T03:07:18;98318.34;;;15.89;59.93
55418;BME280;41287;47.554;7.844;2023-02-28T03:09:54;98308.63;;;15.88;59.93
55418;BME280;41287;47.554;7.844;2023-02-28T03:12:24;98313.75;;;15.89;60.08
55418;BME280;41287;47.554;7.844;2023-02-28T03:15:00;98314.53;;;15.90;59.92
55418;BME280;41287;47.554;7.844;2023-02-28T03:20:32;98315.94;;;15.87;60.03
55418;BME280;41287;47.554;7.844;2023-02-28T03:23:12;98310.22;;;15.89;59.96
55418;BME280;41287;47.554;7.844;2023-02-28T03:26:00;98308.63;;;15.88;59.95
55418;BME280;41287;47.554;7.844;2023-02-28T03:28:51;98297.81;;;15.88;60.02
55418;BME280;41287;47.554;7.844;2023-02-28T03:31:27;98302.13;;;15.89;59.94
55418;BME280;41287;47.554;7.844;2023-02-28T03:34:08;98303.22;;;15.88;60.02
55418;BME280;41287;47.554;7.844;2023-02-28T03:36:38;98299.44;;;15.89;59.89
55418;BME280;41287;47.554;7.844;2023-02-28T03:39:14;98301.31;;;15.88;59.90
55418;BME280;41287;47.554;7.844;2023-02-28T03:42:01;98308.63;;;15.88;59.98
55418;BME280;41287;47.554;7.844;2023-02-28T03:44:34;98304.84;;;15.89;60.00
55418;BME280;41287;47.554;7.844;2023-02-28T03:47:09;98309.44;;;15.88;59.92
55418;BME280;41287;47.554;7.844;2023-02-28T03:50:01;98299.72;;;15.87;59.94
55418;BME280;41287;47.554;7.844;2023-02-28T03:52:33;98304.03;;;15.88;59.86
55418;BME280;41287;47.554;7.844;2023-02-28T03:55:02;98304.84;;;15.89;60.00
55418;BME280;41287;47.554;7.844;2023-02-28T03:57:42;98300.53;;;15.88;59.85
55418;BME280;41287;47.554;7.844;2023-02-28T04:00:14;98312.13;;;15.88;59.92
55418;BME280;41287;47.554;7.844;2023-02-28T04:02:41;98315.63;;;15.89;59.95
55418;BME280;41287;47.554;7.844;2023-02-28T04:05:07;98307.53;;;15.89;59.92
55418;BME280;41287;47.554;7.844;2023-02-28T04:07:33;98321.03;;;15.89;59.96
55418;BME280;41287;47.554;7.844;2023-02-28T04:09:58;98312.94;;;15.89;59.86
55418;BME280;41287;47.554;7.844;2023-02-28T04:12:24;98314.53;;;15.90;60.00
55418;BME280;41287;47.554;7.844;2023-02-28T04:14:50;98311.84;;;15.90;60.00
55418;BME280;41287;47.554;7.844;2023-02-28T04:17:18;98312.13;;;15.88;59.85
55418;BME280;41287;47.554;7.844;2023-02-28T04:19:43;98322.66;;;15.90;59.91
55418;BME280;41287;47.554;7.844;2023-02-28T04:22:09;98321.03;;;15.89;59.96
55418;BME280;41287;47.554;7.844;2023-02-28T04:24:37;98323.75;;;15.89;59.90
55418;BME280;41287;47.554;7.844;2023-02-28T04:27:06;98331.06;;;15.88;60.02
55418;BME280;41287;47.554;7.844;2023-02-28T04:29:31;98323.41;;;15.90;59.87
55418;BME280;41287;47.554;7.844;2023-02-28T04:31:58;98338.06;;;15.89;59.99
55418;BME280;41287;47.554;7.844;2023-02-28T04:34:29;98341.56;;;15.90;59.76
55418;BME280;41287;47.554;7.844;2023-02-28T04:36:56;98342.34;;;15.90;59.94
55418;BME280;41287;47.554;7.844;2023-02-28T04:39:22;98333.44;;;15.90;59.96
55418;BME280;41287;47.554;7.844;2023-02-28T04:41:48;98339.63;;;15.90;59.98
55418;BME280;41287;47.554;7.844;2023-02-28T04:44:14;98333.44;;;15.90;59.81
55418;BME280;41287;47.554;7.844;2023-02-28T04:46:40;98341.56;;;15.90;59.88
55418;BME280;41287;47.554;7.844;2023-02-28T04:49:06;98341.56;;;15.90;59.99
55418;BME280;41287;47.554;7.844;2023-02-28T04:51:35;98341.56;;;15.90;60.01
55418;BME280;41287;47.554;7.844;2023-02-28T04:54:00;98338.84;;;15.90;59.86
55418;BME280;41287;47.554;7.844;2023-02-28T04:56:25;98348.88;;;15.89;59.88
55418;BME280;41287;47.554;7.844;2023-02-28T04:58:53;98337.25;;;15.89;60.03
55418;BME280;41287;47.554;7.844;2023-02-28T05:01:23;98344.25;;;15.90;59.91
55418;BME280;41287;47.554;7.844;2023-02-28T05:03:49;98347.72;;;15.90;59.94
55418;BME280;41287;47.554;7.844;2023-02-28T05:06:16;98338.06;;;15.89;59.85
55418;BME280;41287;47.554;7.844;2023-02-28T05:08:44;98341.56;;;15.90;59.88
55418;BME280;41287;47.554;7.844;2023-02-28T05:11:25;98341.06;;;15.88;59.94
55418;BME280;41287;47.554;7.844;2023-02-28T05:13:51;98342.34;;;15.90;59.93
55418;BME280;41287;47.554;7.844;2023-02-28T05:16:18;98345.38;;;15.89;59.85
55418;BME280;41287;47.554;7.844;2023-02-28T05:18:44;98347.72;;;15.90;59.88
55418;BME280;41287;47.554;7.844;2023-02-28T05:21:24;98351.56;;;15.89;60.00
55418;BME280;41287;47.554;7.844;2023-02-28T05:23:52;98355.06;;;15.90;59.99
55418;BME280;41287;47.554;7.844;2023-02-28T05:26:18;98348.06;;;15.89;59.86
55418;BME280;41287;47.554;7.844;2023-02-28T05:28:44;98353.13;;;15.90;59.86
55418;BME280;41287;47.554;7.844;2023-02-28T05:31:11;98352.38;;;15.90;59.94
55418;BME280;41287;47.554;7.844;2023-02-28T05:33:36;98352.38;;;15.90;60.02
55418;BME280;41287;47.554;7.844;2023-02-28T05:36:01;98357.78;;;15.90;59.93
55418;BME280;41287;47.554;7.844;2023-02-28T05:38:29;98348.88;;;15.89;59.99
55418;BME280;41287;47.554;7.844;2023-02-28T05:40:55;98350.44;;;15.90;60.03
55418;BME280;41287;47.554;7.844;2023-02-28T05:43:21;98346.16;;;15.89;60.02
55418;BME280;41287;47.554;7.844;2023-02-28T05:45:46;98352.38;;;15.90;59.86
55418;BME280;41287;47.554;7.844;2023-02-28T05:48:12;98350.78;;;15.89;59.95
55418;BME280;41287;47.554;7.844;2023-02-28T05:50:37;98349.66;;;15.90;59.99
55418;BME280;41287;47.554;7.844;2023-02-28T05:53:03;98351.56;;;15.89;60.08
55418;BME280;41287;47.554;7.844;2023-02-28T05:55:28;98346.16;;;15.89;59.66
55418;BME280;41287;47.554;7.844;2023-02-28T05:57:54;98353.47;;;15.89;59.97
55418;BME280;41287;47.554;7.844;2023-02-28T06:00:19;98361.56;;;15.89;59.98
55418;BME280;41287;47.554;7.844;2023-02-28T06:02:45;98352.66;;;15.88;60.01
55418;BME280;41287;47.554;7.844;2023-02-28T06:05:15;98358.06;;;15.88;59.98
55418;BME280;41287;47.554;7.844;2023-02-28T06:07:42;98362.03;;;15.91;59.91
55418;BME280;41287;47.554;7.844;2023-02-28T06:10:09;98360.78;;;15.88;60.05
55418;BME280;41287;47.554;7.844;2023-02-28T06:12:34;98360.47;;;15.90;59.88
55418;BME280;41287;47.554;7.844;2023-02-28T06:15:02;98364.28;;;15.89;60.03
55418;BME280;41287;47.554;7.844;2023-02-28T06:17:28;98365.09;;;15.89;60.04
55418;BME280;41287;47.554;7.844;2023-02-28T06:19:53;98362.38;;;15.89;59.93
55418;BME280;41287;47.554;7.844;2023-02-28T06:22:21;98365.09;;;15.89;59.96
55418;BME280;41287;47.554;7.844;2023-02-28T06:24:46;98368.09;;;15.88;60.04
55418;BME280;41287;47.554;7.844;2023-02-28T06:27:11;98365.88;;;15.90;60.05
55418;BME280;41287;47.554;7.844;2023-02-28T06:29:39;98375.88;;;15.89;60.02
55418;BME280;41287;47.554;7.844;2023-02-28T06:32:06;98372.38;;;15.89;59.90
55418;BME280;41287;47.554;7.844;2023-02-28T06:34:32;98380.50;;;15.89;60.04
55418;BME280;41287;47.554;7.844;2023-02-28T06:36:59;98382.09;;;15.90;60.04
55418;BME280;41287;47.554;7.844;2023-02-28T06:39:28;98383.19;;;15.89;60.01
55418;BME280;41287;47.554;7.844;2023-02-28T06:41:53;98384.00;;;15.89;60.07
55418;BME280;41287;47.554;7.844;2023-02-28T06:44:18;98384.00;;;15.89;59.96
55418;BME280;41287;47.554;7.844;2023-02-28T06:46:45;98375.88;;;15.89;60.07
55418;BME280;41287;47.554;7.844;2023-02-28T06:49:13;98384.00;;;15.89;59.90
55418;BME280;41287;47.554;7.844;2023-02-28T06:51:42;98392.09;;;15.89;59.94
55418;BME280;41287;47.554;7.844;2023-02-28T06:54:10;98377.78;;;15.89;60.04
55418;BME280;41287;47.554;7.844;2023-02-28T06:56:38;98384.00;;;15.89;60.01
55418;BME280;41287;47.554;7.844;2023-02-28T06:59:04;98384.78;;;15.90;59.99
55418;BME280;41287;47.554;7.844;2023-02-28T07:01:30;98384.78;;;15.90;59.92
55418;BME280;41287;47.554;7.844;2023-02-28T07:03:58;98385.91;;;15.89;60.05
55418;BME280;41287;47.554;7.844;2023-02-28T07:06:27;98384.78;;;15.90;59.95
55418;BME280;41287;47.554;7.844;2023-02-28T07:08:53;98383.19;;;15.89;59.93
55418;BME280;41287;47.554;7.844;2023-02-28T07:11:20;98386.69;;;15.89;59.99
55418;BME280;41287;47.554;7.844;2023-02-28T07:13:48;98394.81;;;15.89;60.05
55418;BME280;41287;47.554;7.844;2023-02-28T07:16:13;98399.41;;;15.89;60.00
55418;BME280;41287;47.554;7.844;2023-02-28T07:18:39;98394.00;;;15.89;59.93
55418;BME280;41287;47.554;7.844;2023-02-28T07:21:08;98402.91;;;15.89;59.94
55418;BME280;41287;47.554;7.844;2023-02-28T07:23:37;98402.91;;;15.89;60.05
55418;BME280;41287;47.554;7.844;2023-02-28T07:26:07;98401.31;;;15.88;59.98
55418;BME280;41287;47.554;7.844;2023-02-28T07:28:33;98406.41;;;15.90;59.97
55418;BME280;41287;47.554;7.844;2023-02-28T07:31:05;98406.72;;;15.88;60.06
55418;BME280;41287;47.554;7.844;2023-02-28T07:33:31;98409.13;;;15.90;59.87
55418;BME280;41287;47.554;7.844;2023-02-28T07:36:11;98407.00;;;15.87;59.57
55418;BME280;41287;47.554;7.844;2023-02-28T07:38:43;98409.41;;;15.88;59.58
55418;BME280;41287;47.554;7.844;2023-02-28T07:41:09;98416.72;;;15.88;59.61
55418;BME280;41287;47.554;7.844;2023-02-28T07:43:35;98416.41;;;15.89;59.54
55418;BME280;41287;47.554;7.844;2023-02-28T07:46:06;98427.22;;;15.89;59.70
55418;BME280;41287;47.554;7.844;2023-02-28T07:48:32;98435.63;;;15.88;59.64
55418;BME280;41287;47.554;7.844;2023-02-28T07:50:58;98423.22;;;15.87;59.22
55418;BME280;41287;47.554;7.844;2023-02-28T07:53:24;98427.03;;;15.86;58.67
55418;BME280;41287;47.554;7.844;2023-02-28T07:55:54;98427.03;;;15.86;58.25
55418;BME280;41287;47.554;7.844;2023-02-28T07:58:19;98423.53;;;15.85;58.25
55418;BME280;41287;47.554;7.844;2023-02-28T08:00:44;98414.63;;;15.85;58.37
55418;BME280;41287;47.554;7.844;2023-02-28T08:03:13;98423.53;;;15.85;58.40
55418;BME280;41287;47.554;7.844;2023-02-28T08:05:39;98423.53;;;15.85;58.35
55418;BME280;41287;47.554;7.844;2023-02-28T08:08:05;98437.84;;;15.86;58.57
55418;BME280;41287;47.554;7.844;2023-02-28T08:10:31;98438.94;;;15.85;58.64
55418;BME280;41287;47.554;7.844;2023-02-28T08:12:59;98449.44;;;15.86;58.64
55418;BME280;41287;47.554;7.844;2023-02-28T08:15:25;98445.94;;;15.86;58.70
55418;BME280;41287;47.554;7.844;2023-02-28T08:17:50;98450.25;;;15.87;58.88
55418;BME280;41287;47.554;7.844;2023-02-28T08:20:16;98437.03;;;15.85;58.66
55418;BME280;41287;47.554;7.844;2023-02-28T08:22:41;98441.34;;;15.86;58.87
55418;BME280;41287;47.554;7.844;2023-02-28T08:25:07;98443.25;;;15.86;58.79
55418;BME280;41287;47.554;7.844;2023-02-28T08:27:35;98440.53;;;15.86;58.94
55418;BME280;41287;47.554;7.844;2023-02-28T08:30:02;98435.94;;;15.86;58.95
55418;BME280;41287;47.554;7.844;2023-02-28T08:32:28;98441.34;;;15.86;58.80
55418;BME280;41287;47.554;7.844;2023-02-28T08:34:55;98440.53;;;15.86;58.95
55418;BME280;41287;47.554;7.844;2023-02-28T08:37:21;98444.84;;;15.87;59.03
55418;BME280;41287;47.554;7.844;2023-02-28T08:39:46;98448.66;;;15.86;59.03
55418;BME280;41287;47.554;7.844;2023-02-28T08:42:12;98440.53;;;15.86;58.86
55418;BME280;41287;47.554;7.844;2023-02-28T08:44:37;98446.75;;;15.86;59.41
55418;BME280;41287;47.554;7.844;2023-02-28T08:47:03;98449.44;;;15.86;59.02
55418;BME280;41287;47.554;7.844;2023-02-28T08:49:28;98455.66;;;15.87;59.20
55418;BME280;41287;47.554;7.844;2023-02-28T08:51:54;98452.94;;;15.87;59.04
55418;BME280;41287;47.554;7.844;2023-02-28T08:54:20;98452.16;;;15.86;58.95
55418;BME280;41287;47.554;7.844;2023-02-28T08:56:46;98452.94;;;15.87;59.57
55418;BME280;41287;47.554;7.844;2023-02-28T08:59:12;98461.84;;;15.87;58.97
55418;BME280;41287;47.554;7.844;2023-02-28T09:01:40;98467.25;;;15.87;59.16
55418;BME280;41287;47.554;7.844;2023-02-28T09:04:10;98460.25;;;15.86;59.20
55418;BME280;41287;47.554;7.844;2023-02-28T09:06:36;98472.66;;;15.87;59.18
55418;BME280;41287;47.554;7.844;2023-02-28T09:09:02;98466.47;;;15.87;59.14
55418;BME280;41287;47.554;7.844;2023-02-28T09:11:33;98474.56;;;15.87;59.16
55418;BME280;41287;47.554;7.844;2023-02-28T09:13:59;98469.16;;;15.87;59.11
55418;BME280;41287;47.554;7.844;2023-02-28T09:16:25;98469.16;;;15.87;59.18
55418;BME280;41287;47.554;7.844;2023-02-28T09:18:52;98472.97;;;15.86;59.17
55418;BME280;41287;47.554;7.844;2023-02-28T09:21:19;98469.97;;;15.87;59.35
55418;BME280;41287;47.554;7.844;2023-02-28T09:23:45;98467.56;;;15.86;59.22
55418;BME280;41287;47.554;7.844;2023-02-28T09:26:17;98473.78;;;15.86;59.27
55418;BME280;41287;47.554;7.844;2023-02-28T09:28:43;98474.56;;;15.87;59.35
55418;BME280;41287;47.554;7.844;2023-02-28T09:31:14;98470.25;;;15.86;59.21
55418;BME280;41287;47.554;7.844;2023-02-28T09:33:40;98464.84;;;15.86;59.29
55418;BME280;41287;47.554;7.844;2023-02-28T09:36:06;98471.88;;;15.87;59.36
55418;BME280;41287;47.554;7.844;2023-02-28T09:38:31;98464.84;;;15.86;59.24
55418;BME280;41287;47.554;7.844;2023-02-28T09:41:00;98471.88;;;15.87;59.27
55418;BME280;41287;47.554;7.844;2023-02-28T09:43:33;98473.78;;;15.86;59.35
55418;BME280;41287;47.554;7.844;2023-02-28T09:46:12;98472.97;;;15.86;59.37
55418;BME280;41287;47.554;7.844;2023-02-28T09:48:43;98479.16;;;15.86;59.28
55418;BME280;41287;47.554;7.844;2023-02-28T09:51:22;98479.16;;;15.86;59.34
55418;BME280;41287;47.554;7.844;2023-02-28T09:53:52;98481.06;;;15.86;59.40
55418;BME280;41287;47.554;7.844;2023-02-28T09:56:39;98473.25;;;15.84;59.44
55418;BME280;41287;47.554;7.844;2023-02-28T10:01:51;98473.25;;;15.84;59.44
55418;BME280;41287;47.554;7.844;2023-02-28T10:04:42;98485.69;;;15.85;59.50
55418;BME280;41287;47.554;7.844;2023-02-28T10:07:19;98486.78;;;15.84;59.45
55418;BME280;41287;47.554;7.844;2023-02-28T10:09:50;98485.69;;;15.85;59.38
55418;BME280;41287;47.554;7.844;2023-02-28T10:12:17;98487.56;;;15.85;59.41
55418;BME280;41287;47.554;7.844;2023-02-28T10:14:46;98485.69;;;15.85;59.44
55418;BME280;41287;47.554;7.844;2023-02-28T10:17:18;98484.56;;;15.86;59.51
55418;BME280;41287;47.554;7.844;2023-02-28T10:20:01;98484.88;;;15.85;59.47
55418;BME280;41287;47.554;7.844;2023-02-28T10:25:28;98495.69;;;15.85;59.54
55418;BME280;41287;47.554;7.844;2023-02-28T10:28:07;98503.78;;;15.85;59.49
55418;BME280;41287;47.554;7.844;2023-02-28T10:30:36;98507.28;;;15.85;59.34
55418;BME280;41287;47.554;7.844;2023-02-28T10:33:02;98508.09;;;15.86;59.60
55418;BME280;41287;47.554;7.844;2023-02-28T10:35:28;98501.88;;;15.85;59.52
55418;BME280;41287;47.554;7.844;2023-02-28T10:37:58;98492.97;;;15.85;59.46
55418;BME280;41287;47.554;7.844;2023-02-28T10:45:54;98504.09;;;15.83;59.47
55418;BME280;41287;47.554;7.844;2023-02-28T10:50:51;98505.69;;;15.84;59.54
55418;BME280;41287;47.554;7.844;2023-02-28T11:04:00;98509.19;;;15.85;59.59
55418;BME280;41287;47.554;7.844;2023-02-28T11:06:29;98511.09;;;15.84;59.59
55418;BME280;41287;47.554;7.844;2023-02-28T11:08:58;98511.91;;;15.85;59.57
55418;BME280;41287;47.554;7.844;2023-02-28T11:11:27;98515.41;;;15.85;59.58
55418;BME280;41287;47.554;7.844;2023-02-28T11:14:02;98514.59;;;15.85;59.58
55418;BME280;41287;47.554;7.844;2023-02-28T11:16:35;98515.41;;;15.85;59.64
55418;BME280;41287;47.554;7.844;2023-02-28T11:19:04;98503.78;;;15.85;59.66
55418;BME280;41287;47.554;7.844;2023-02-28T11:21:36;98502.19;;;15.84;59.54
55418;BME280;41287;47.554;7.844;2023-02-28T11:24:06;98511.09;;;15.84;59.86
55418;BME280;41287;47.554;7.844;2023-02-28T11:26:46;98516.19;;;15.86;59.50
55418;BME280;41287;47.554;7.844;2023-02-28T11:29:20;98523.22;;;15.87;59.48
55418;BME280;41287;47.554;7.844;2023-02-28T11:32:17;98515.69;;;15.84;59.64
55418;BME280;41287;47.554;7.844;2023-02-28T11:34:44;98522.69;;;15.85;59.52
55418;BME280;41287;47.554;7.844;2023-02-28T11:37:16;98521.09;;;15.84;59.62
55418;BME280;41287;47.554;7.844;2023-02-28T11:39:43;98528.09;;;15.85;59.61
55418;BME280;41287;47.554;7.844;2023-02-28T11:45:45;98525.69;;;15.83;59.73
55418;BME280;41287;47.554;7.844;2023-02-28T11:48:22;98516.50;;;15.84;59.69
55418;BME280;41287;47.554;7.844;2023-02-28T11:56:38;98514.91;;;15.83;59.70
55418;BME280;41287;47.554;7.844;2023-02-28T12:07:56;98523.81;;;15.84;59.53
55418;BME280;41287;47.554;7.844;2023-02-28T12:10:29;98520.28;;;15.83;59.60
55418;BME280;41287;47.554;7.844;2023-02-28T12:13:21;98521.72;;;15.80;59.78
55418;BME280;41287;47.554;7.844;2023-02-28T12:19:07;98513.31;;;15.82;59.64
55418;BME280;41287;47.554;7.844;2023-02-28T12:27:27;98521.91;;;15.84;59.65
55418;BME280;41287;47.554;7.844;2023-02-28T12:30:00;98514.91;;;15.83;59.76
55418;BME280;41287;47.554;7.844;2023-02-28T12:32:31;98507.59;;;15.84;59.77
55418;BME280;41287;47.554;7.844;2023-02-28T12:35:04;98508.72;;;15.83;59.78
55418;BME280;41287;47.554;7.844;2023-02-28T12:37:37;98514.13;;;15.83;59.80
55418;BME280;41287;47.554;7.844;2023-02-28T12:40:11;98512.19;;;15.83;59.74
55418;BME280;41287;47.554;7.844;2023-02-28T12:42:42;98509.50;;;15.83;59.78
55418;BME280;41287;47.554;7.844;2023-02-28T12:45:18;98508.72;;;15.83;59.75
55418;BME280;41287;47.554;7.844;2023-02-28T12:47:46;98498.69;;;15.83;59.70
55418;BME280;41287;47.554;7.844;2023-02-28T12:50:14;98504.88;;;15.84;59.62
55418;BME280;41287;47.554;7.844;2023-02-28T12:53:02;98509.50;;;15.83;59.84
55418;BME280;41287;47.554;7.844;2023-02-28T12:55:40;98501.38;;;15.83;59.70
55418;BME280;41287;47.554;7.844;2023-02-28T12:58:18;98502.50;;;15.82;59.78
55418;BME280;41287;47.554;7.844;2023-02-28T13:01:10;98503.31;;;15.83;59.72
55418;BME280;41287;47.554;7.844;2023-02-28T13:09:32;98498.69;;;15.83;59.85
55418;BME280;41287;47.554;7.844;2023-02-28T13:11:58;98498.69;;;15.83;59.77
55418;BME280;41287;47.554;7.844;2023-02-28T13:14:36;98499.81;;;15.82;59.76
55418;BME280;41287;47.554;7.844;2023-02-28T13:19:42;98493.28;;;15.83;59.85
55418;BME280;41287;47.554;7.844;2023-02-28T13:22:44;98486.31;;;15.82;59.82
55418;BME280;41287;47.554;7.844;2023-02-28T13:27:48;98485.97;;;15.84;59.70
55418;BME280;41287;47.554;7.844;2023-02-28T13:36:05;98489.81;;;15.83;59.82
55418;BME280;41287;47.554;7.844;2023-02-28T13:38:34;98499.47;;;15.84;59.83
55418;BME280;41287;47.554;7.844;2023-02-28T13:41:40;98500.63;;;15.83;59.94
55418;BME280;41287;47.554;7.844;2023-02-28T13:44:08;98507.59;;;15.84;59.84
55418;BME280;41287;47.554;7.844;2023-02-28T13:52:16;98503.31;;;15.83;59.84
55418;BME280;41287;47.554;7.844;2023-02-28T13:54:57;98501.38;;;15.83;59.77
55418;BME280;41287;47.554;7.844;2023-02-28T13:57:44;98504.09;;;15.83;59.79
55418;BME280;41287;47.554;7.844;2023-02-28T14:00:41;98507.91;;;15.82;59.83
55418;BME280;41287;47.554;7.844;2023-02-28T14:03:40;98502.50;;;15.82;59.85
55418;BME280;41287;47.554;7.844;2023-02-28T14:06:27;98504.09;;;15.83;59.84
55418;BME280;41287;47.554;7.844;2023-02-28T14:09:32;98505.22;;;15.82;59.71
55418;BME280;41287;47.554;7.844;2023-02-28T14:20:45;98506.03;;;15.83;59.88
55418;BME280;41287;47.554;7.844;2023-02-28T14:26:06;98501.72;;;15.82;59.93
55418;BME280;41287;47.554;7.844;2023-02-28T14:31:25;98499.81;;;15.82;59.76
55418;BME280;41287;47.554;7.844;2023-02-28T14:34:05;98499.00;;;15.82;59.83
55418;BME280;41287;47.554;7.844;2023-02-28T14:36:40;98500.63;;;15.83;59.75
55418;BME280;41287;47.554;7.844;2023-02-28T14:39:12;98501.72;;;15.82;59.79
55418;BME280;41287;47.554;7.844;2023-02-28T14:41:41;98502.19;;;15.84;59.89
55418;BME280;41287;47.554;7.844;2023-02-28T14:44:24;98492.81;;;15.81;59.65
55418;BME280;41287;47.554;7.844;2023-02-28T14:46:59;98506.78;;;15.83;59.71
55418;BME280;41287;47.554;7.844;2023-02-28T14:49:35;98503.31;;;15.83;59.93
55418;BME280;41287;47.554;7.844;2023-02-28T14:52:06;98507.91;;;15.82;59.86
55418;BME280;41287;47.554;7.844;2023-02-28T14:54:36;98504.09;;;15.83;59.92
55418;BME280;41287;47.554;7.844;2023-02-28T14:57:03;98503.31;;;15.83;59.92
55418;BME280;41287;47.554;7.844;2023-02-28T14:59:35;98501.38;;;15.83;59.86
55418;BME280;41287;47.554;7.844;2023-02-28T15:02:20;98506.03;;;15.83;59.84
55418;BME280;41287;47.554;7.844;2023-02-28T15:04:54;98506.31;;;15.81;59.84